sensor_id;sensor_type;location;lat;lon;timestamp;pressure;altitude;pressure_sealevel;temperature
48854;BMP280;34673;52.808;17.856;2024-01-16T00:02:05;98569.00;;;-2.31
48854;BMP280;34673;52.808;17.856;2024-01-16T00:04:32;98568.06;;;-2.37
48854;BMP280;34673;52.808;17.856;2024-01-16T00:06:59;98572.28;;;-2.38
48854;BMP280;34673;52.808;17.856;2024-01-16T00:09:27;98569.69;;;-2.42
48854;BMP280;34673;52.808;17.856;2024-01-16T00:11:54;98572.25;;;-2.41
48854;BMP280;34673;52.808;17.856;2024-01-16T00:14:21;98571.41;;;-2.41
48854;BMP280;34673;52.808;17.856;2024-01-16T00:16:48;98579.81;;;-2.44
48854;BMP280;34673;52.808;17.856;2024-01-16T00:19:15;98589.03;;;-2.46
48854;BMP280;34673;52.808;17.856;2024-01-16T00:21:44;98581.38;;;-2.52
48854;BMP280;34673;52.808;17.856;2024-01-16T00:24:14;98592.28;;;-2.53
48854;BMP280;34673;52.808;17.856;2024-01-16T00:26:42;98605.81;;;-2.53
48854;BMP280;34673;52.808;17.856;2024-01-16T00:29:10;98602.38;;;-2.56
48854;BMP280;34673;52.808;17.856;2024-01-16T00:31:39;98613.34;;;-2.56
48854;BMP280;34673;52.808;17.856;2024-01-16T00:34:06;98615.03;;;-2.58
48854;BMP280;34673;52.808;17.856;2024-01-16T00:36:34;98624.31;;;-2.55
48854;BMP280;34673;52.808;17.856;2024-01-16T00:39:01;98636.97;;;-2.55
48854;BMP280;34673;52.808;17.856;2024-01-16T00:41:29;98636.16;;;-2.54
48854;BMP280;34673;52.808;17.856;2024-01-16T00:43:57;98631.06;;;-2.57
48854;BMP280;34673;52.808;17.856;2024-01-16T00:46:24;98632.84;;;-2.50
48854;BMP280;34673;52.808;17.856;2024-01-16T00:48:51;98638.75;;;-2.51
48854;BMP280;34673;52.808;17.856;2024-01-16T00:51:18;98648.78;;;-2.56
48854;BMP280;34673;52.808;17.856;2024-01-16T00:53:45;98659.84;;;-2.52
48854;BMP280;34673;52.808;17.856;2024-01-16T00:56:12;98667.41;;;-2.54
48854;BMP280;34673;52.808;17.856;2024-01-16T00:58:40;98666.53;;;-2.54
48854;BMP280;34673;52.808;17.856;2024-01-16T01:01:07;98666.47;;;-2.59
48854;BMP280;34673;52.808;17.856;2024-01-16T01:03:34;98670.72;;;-2.56
48854;BMP280;34673;52.808;17.856;2024-01-16T01:06:02;98672.31;;;-2.63
48854;BMP280;34673;52.808;17.856;2024-01-16T01:08:29;98676.56;;;-2.60
48854;BMP280;34673;52.808;17.856;2024-01-16T01:10:56;98683.22;;;-2.65
48854;BMP280;34673;52.808;17.856;2024-01-16T01:13:23;98683.06;;;-2.75
48854;BMP280;34673;52.808;17.856;2024-01-16T01:15:52;98684.78;;;-2.74
48854;BMP280;34673;52.808;17.856;2024-01-16T01:18:19;98683.00;;;-2.78
48854;BMP280;34673;52.808;17.856;2024-01-16T01:20:47;98689.69;;;-2.80
48854;BMP280;34673;52.808;17.856;2024-01-16T01:23:14;98693.88;;;-2.83
48854;BMP280;34673;52.808;17.856;2024-01-16T01:25:41;98694.66;;;-2.86
48854;BMP280;34673;52.808;17.856;2024-01-16T01:28:10;98702.22;;;-2.87
48854;BMP280;34673;52.808;17.856;2024-01-16T01:30:38;98697.97;;;-2.88
48854;BMP280;34673;52.808;17.856;2024-01-16T01:33:05;98703.03;;;-2.90
48854;BMP280;34673;52.808;17.856;2024-01-16T01:35:33;98708.84;;;-2.94
48854;BMP280;34673;52.808;17.856;2024-01-16T01:38:00;98718.06;;;-2.96
48854;BMP280;34673;52.808;17.856;2024-01-16T01:40:27;98719.75;;;-2.98
48854;BMP280;34673;52.808;17.856;2024-01-16T01:42:54;98724.66;;;-3.04
48854;BMP280;34673;52.808;17.856;2024-01-16T01:45:21;98718.75;;;-3.05
48854;BMP280;34673;52.808;17.856;2024-01-16T01:47:49;98731.28;;;-3.09
48854;BMP280;34673;52.808;17.856;2024-01-16T01:50:16;98720.16;;;-3.19
48854;BMP280;34673;52.808;17.856;2024-01-16T01:52:44;98732.97;;;-3.12
48854;BMP280;34673;52.808;17.856;2024-01-16T01:55:12;98731.22;;;-3.13
48854;BMP280;34673;52.808;17.856;2024-01-16T01:57:40;98746.34;;;-3.16
48854;BMP280;34673;52.808;17.856;2024-01-16T02:00:10;98752.19;;;-3.20
48854;BMP280;34673;52.808;17.856;2024-01-16T02:02:41;98751.97;;;-3.29
48854;BMP280;34673;52.808;17.856;2024-01-16T02:05:09;98761.28;;;-3.28
48854;BMP280;34673;52.808;17.856;2024-01-16T02:07:37;98761.13;;;-3.34
48854;BMP280;34673;52.808;17.856;2024-01-16T02:10:05;98768.75;;;-3.32
48854;BMP280;34673;52.808;17.856;2024-01-16T02:12:33;98781.44;;;-3.31
48854;BMP280;34673;52.808;17.856;2024-01-16T02:15:00;98779.78;;;-3.29
48854;BMP280;34673;52.808;17.856;2024-01-16T02:17:27;98784.84;;;-3.29
48854;BMP280;34673;52.808;17.856;2024-01-16T02:19:54;98778.81;;;-3.34
48854;BMP280;34673;52.808;17.856;2024-01-16T02:22:24;98788.25;;;-3.27
48854;BMP280;34673;52.808;17.856;2024-01-16T02:24:52;98785.69;;;-3.28
48854;BMP280;34673;52.808;17.856;2024-01-16T02:27:19;98796.69;;;-3.28
48854;BMP280;34673;52.808;17.856;2024-01-16T02:29:46;98789.78;;;-3.35
48854;BMP280;34673;52.808;17.856;2024-01-16T02:32:15;98799.94;;;-3.32
48854;BMP280;34673;52.808;17.856;2024-01-16T02:34:42;98807.56;;;-3.30
48854;BMP280;34673;52.808;17.856;2024-01-16T02:37:10;98816.03;;;-3.28
48854;BMP280;34673;52.808;17.856;2024-01-16T02:39:37;98825.28;;;-3.29
48854;BMP280;34673;52.808;17.856;2024-01-16T02:42:04;98816.75;;;-3.34
48854;BMP280;34673;52.808;17.856;2024-01-16T02:44:31;98823.53;;;-3.33
48854;BMP280;34673;52.808;17.856;2024-01-16T02:46:59;98821.81;;;-3.34
48854;BMP280;34673;52.808;17.856;2024-01-16T02:49:27;98825.22;;;-3.32
48854;BMP280;34673;52.808;17.856;2024-01-16T02:51:54;98815.13;;;-3.32
48854;BMP280;34673;52.808;17.856;2024-01-16T02:54:22;98826.13;;;-3.30
48854;BMP280;34673;52.808;17.856;2024-01-16T02:56:49;98828.59;;;-3.33
48854;BMP280;34673;52.808;17.856;2024-01-16T02:59:16;98828.53;;;-3.36
48854;BMP280;34673;52.808;17.856;2024-01-16T03:01:44;98828.53;;;-3.36
48854;BMP280;34673;52.808;17.856;2024-01-16T03:04:11;98831.06;;;-3.35
48854;BMP280;34673;52.808;17.856;2024-01-16T03:06:38;98842.13;;;-3.31
48854;BMP280;34673;52.808;17.856;2024-01-16T03:09:06;98850.56;;;-3.29
48854;BMP280;34673;52.808;17.856;2024-01-16T03:11:33;98859.06;;;-3.27
48854;BMP280;34673;52.808;17.856;2024-01-16T03:14:00;98857.28;;;-3.31
48854;BMP280;34673;52.808;17.856;2024-01-16T03:16:28;98859.81;;;-3.31
48854;BMP280;34673;52.808;17.856;2024-01-16T03:18:55;98857.19;;;-3.34
48854;BMP280;34673;52.808;17.856;2024-01-16T03:21:23;98858.94;;;-3.33
48854;BMP280;34673;52.808;17.856;2024-01-16T03:23:50;98860.69;;;-3.29
48854;BMP280;34673;52.808;17.856;2024-01-16T03:26:17;98861.59;;;-3.27
48854;BMP280;34673;52.808;17.856;2024-01-16T03:28:44;98870.00;;;-3.28
48854;BMP280;34673;52.808;17.856;2024-01-16T03:31:13;98860.69;;;-3.29
48854;BMP280;34673;52.808;17.856;2024-01-16T03:33:41;98862.34;;;-3.31
48854;BMP280;34673;52.808;17.856;2024-01-16T03:36:11;98867.47;;;-3.28
48854;BMP280;34673;52.808;17.856;2024-01-16T03:38:42;98873.34;;;-3.29
48854;BMP280;34673;52.808;17.856;2024-01-16T03:41:13;98876.75;;;-3.27
48854;BMP280;34673;52.808;17.856;2024-01-16T03:43:40;98864.97;;;-3.26
48854;BMP280;34673;52.808;17.856;2024-01-16T03:46:10;98877.66;;;-3.25
48854;BMP280;34673;52.808;17.856;2024-01-16T03:48:37;98883.50;;;-3.27
48854;BMP280;34673;52.808;17.856;2024-01-16T03:51:05;98880.97;;;-3.26
48854;BMP280;34673;52.808;17.856;2024-01-16T03:53:33;98891.88;;;-3.28
48854;BMP280;34673;52.808;17.856;2024-01-16T03:56:00;98886.88;;;-3.27
48854;BMP280;34673;52.808;17.856;2024-01-16T03:58:27;98889.34;;;-3.30
48854;BMP280;34673;52.808;17.856;2024-01-16T04:00:55;98897.81;;;-3.28
48854;BMP280;34673;52.808;17.856;2024-01-16T04:03:22;98892.69;;;-3.31
48854;BMP280;34673;52.808;17.856;2024-01-16T04:05:49;98889.13;;;-3.39
48854;BMP280;34673;52.808;17.856;2024-01-16T04:08:16;98899.31;;;-3.36
48854;BMP280;34673;52.808;17.856;2024-01-16T04:10:44;98905.16;;;-3.39
48854;BMP280;34673;52.808;17.856;2024-01-16T04:13:11;98907.63;;;-3.40
48854;BMP280;34673;52.808;17.856;2024-01-16T04:15:38;98902.50;;;-3.43
48854;BMP280;34673;52.808;17.856;2024-01-16T04:18:06;98925.44;;;-3.36
48854;BMP280;34673;52.808;17.856;2024-01-16T04:20:33;98928.00;;;-3.34
48854;BMP280;34673;52.808;17.856;2024-01-16T04:23:01;98934.78;;;-3.33
48854;BMP280;34673;52.808;17.856;2024-01-16T04:25:28;98924.53;;;-3.39
48854;BMP280;34673;52.808;17.856;2024-01-16T04:27:55;98918.56;;;-3.41
48854;BMP280;34673;52.808;17.856;2024-01-16T04:30:22;98928.63;;;-3.43
48854;BMP280;34673;52.808;17.856;2024-01-16T04:32:49;98930.94;;;-3.52
48854;BMP280;34673;52.808;17.856;2024-01-16T04:35:16;98935.84;;;-3.58
48854;BMP280;34673;52.808;17.856;2024-01-16T04:37:43;98939.16;;;-3.61
48854;BMP280;34673;52.808;17.856;2024-01-16T04:40:10;98951.72;;;-3.62
48854;BMP280;34673;52.808;17.856;2024-01-16T04:42:38;98944.03;;;-3.67
48854;BMP280;34673;52.808;17.856;2024-01-16T04:45:05;98947.31;;;-3.71
48854;BMP280;34673;52.808;17.856;2024-01-16T04:47:33;98942.16;;;-3.74
48854;BMP280;34673;52.808;17.856;2024-01-16T04:50:00;98940.44;;;-3.75
48854;BMP280;34673;52.808;17.856;2024-01-16T04:52:27;98946.28;;;-3.78
48854;BMP280;34673;52.808;17.856;2024-01-16T04:54:54;98943.66;;;-3.82
48854;BMP280;34673;52.808;17.856;2024-01-16T04:57:21;98953.91;;;-3.76
48854;BMP280;34673;52.808;17.856;2024-01-16T04:59:48;98944.34;;;-3.88
48854;BMP280;34673;52.808;17.856;2024-01-16T05:02:16;98962.03;;;-3.86
48854;BMP280;34673;52.808;17.856;2024-01-16T05:04:44;98951.72;;;-3.94
48854;BMP280;34673;52.808;17.856;2024-01-16T05:07:11;98970.44;;;-3.87
48854;BMP280;34673;52.808;17.856;2024-01-16T05:09:38;98968.72;;;-3.88
48854;BMP280;34673;52.808;17.856;2024-01-16T05:12:05;98962.88;;;-3.87
48854;BMP280;34673;52.808;17.856;2024-01-16T05:14:32;98987.31;;;-3.86
48854;BMP280;34673;52.808;17.856;2024-01-16T05:16:59;98995.72;;;-3.87
48854;BMP280;34673;52.808;17.856;2024-01-16T05:19:26;99000.59;;;-3.93
48854;BMP280;34673;52.808;17.856;2024-01-16T05:21:54;98994.59;;;-3.97
48854;BMP280;34673;52.808;17.856;2024-01-16T05:24:21;98990.16;;;-4.06
48854;BMP280;34673;52.808;17.856;2024-01-16T05:26:48;99001.19;;;-4.02
48854;BMP280;34673;52.808;17.856;2024-01-16T05:29:16;98997.56;;;-4.10
48854;BMP280;34673;52.808;17.856;2024-01-16T05:31:44;99010.25;;;-4.09
48854;BMP280;34673;52.808;17.856;2024-01-16T05:34:11;99002.63;;;-4.10
48854;BMP280;34673;52.808;17.856;2024-01-16T05:36:38;99011.88;;;-4.11
48854;BMP280;34673;52.808;17.856;2024-01-16T05:39:05;99007.56;;;-4.15
48854;BMP280;34673;52.808;17.856;2024-01-16T05:41:33;99004.91;;;-4.19
48854;BMP280;34673;52.808;17.856;2024-01-16T05:44:02;99012.47;;;-4.19
48854;BMP280;34673;52.808;17.856;2024-01-16T05:46:32;99021.66;;;-4.23
48854;BMP280;34673;52.808;17.856;2024-01-16T05:48:59;99017.34;;;-4.26
48854;BMP280;34673;52.808;17.856;2024-01-16T05:51:27;99020.50;;;-4.33
48854;BMP280;34673;52.808;17.856;2024-01-16T05:53:55;99030.59;;;-4.33
48854;BMP280;34673;52.808;17.856;2024-01-16T05:56:22;99017.75;;;-4.40
48854;BMP280;34673;52.808;17.856;2024-01-16T05:58:49;99021.09;;;-4.41
48854;BMP280;34673;52.808;17.856;2024-01-16T06:01:16;99041.28;;;-4.41
48854;BMP280;34673;52.808;17.856;2024-01-16T06:03:43;99040.44;;;-4.42
48854;BMP280;34673;52.808;17.856;2024-01-16T06:06:13;99042.81;;;-4.47
48854;BMP280;34673;52.808;17.856;2024-01-16T06:08:40;99048.56;;;-4.51
48854;BMP280;34673;52.808;17.856;2024-01-16T06:11:07;99043.41;;;-4.54
48854;BMP280;34673;52.808;17.856;2024-01-16T06:13:36;99056.03;;;-4.54
48854;BMP280;34673;52.808;17.856;2024-01-16T06:16:06;99055.16;;;-4.56
48854;BMP280;34673;52.808;17.856;2024-01-16T06:18:34;99069.47;;;-4.55
48854;BMP280;34673;52.808;17.856;2024-01-16T06:21:03;99059.97;;;-4.62
48854;BMP280;34673;52.808;17.856;2024-01-16T06:23:30;99077.81;;;-4.57
48854;BMP280;34673;52.808;17.856;2024-01-16T06:25:58;99077.88;;;-4.56
48854;BMP280;34673;52.808;17.856;2024-01-16T06:28:26;99078.56;;;-4.60
48854;BMP280;34673;52.808;17.856;2024-01-16T06:30:53;99081.00;;;-4.63
48854;BMP280;34673;52.808;17.856;2024-01-16T06:33:20;99082.59;;;-4.65
48854;BMP280;34673;52.808;17.856;2024-01-16T06:35:47;99082.59;;;-4.65
48854;BMP280;34673;52.808;17.856;2024-01-16T06:38:19;99101.09;;;-4.66
48854;BMP280;34673;52.808;17.856;2024-01-16T06:40:46;99111.16;;;-4.66
48854;BMP280;34673;52.808;17.856;2024-01-16T06:43:14;99111.16;;;-4.66
48854;BMP280;34673;52.808;17.856;2024-01-16T06:45:42;99122.88;;;-4.68
48854;BMP280;34673;52.808;17.856;2024-01-16T06:48:10;99121.06;;;-4.72
48854;BMP280;34673;52.808;17.856;2024-01-16T06:50:38;99133.72;;;-4.71
48854;BMP280;34673;52.808;17.856;2024-01-16T06:53:05;99127.81;;;-4.71
48854;BMP280;34673;52.808;17.856;2024-01-16T06:55:33;99131.16;;;-4.72
48854;BMP280;34673;52.808;17.856;2024-01-16T06:58:00;99134.47;;;-4.73
48854;BMP280;34673;52.808;17.856;2024-01-16T07:00:27;99135.31;;;-4.73
48854;BMP280;34673;52.808;17.856;2024-01-16T07:02:54;99140.38;;;-4.73
48854;BMP280;34673;52.808;17.856;2024-01-16T07:05:22;99139.53;;;-4.73
48854;BMP280;34673;52.808;17.856;2024-01-16T07:07:49;99142.00;;;-4.75
48854;BMP280;34673;52.808;17.856;2024-01-16T07:10:16;99153.81;;;-4.74
48854;BMP280;34673;52.808;17.856;2024-01-16T07:12:49;99163.81;;;-4.75
48854;BMP280;34673;52.808;17.856;2024-01-16T07:15:16;99164.75;;;-4.73
48854;BMP280;34673;52.808;17.856;2024-01-16T07:17:44;99176.44;;;-4.75
48854;BMP280;34673;52.808;17.856;2024-01-16T07:20:11;99165.22;;;-4.83
48854;BMP280;34673;52.808;17.856;2024-01-16T07:22:38;99180.59;;;-4.77
48854;BMP280;34673;52.808;17.856;2024-01-16T07:25:08;99177.97;;;-4.80
48854;BMP280;34673;52.808;17.856;2024-01-16T07:27:35;99184.72;;;-4.79
48854;BMP280;34673;52.808;17.856;2024-01-16T07:30:06;99187.94;;;-4.83
48854;BMP280;34673;52.808;17.856;2024-01-16T07:32:34;99190.69;;;-4.77
48854;BMP280;34673;52.808;17.856;2024-01-16T07:35:02;99190.78;;;-4.74
48854;BMP280;34673;52.808;17.856;2024-01-16T07:37:30;99195.84;;;-4.74
48854;BMP280;34673;52.808;17.856;2024-01-16T07:39:57;99189.94;;;-4.75
48854;BMP280;34673;52.808;17.856;2024-01-16T07:42:24;99188.28;;;-4.74
48854;BMP280;34673;52.808;17.856;2024-01-16T07:44:52;99193.41;;;-4.71
48854;BMP280;34673;52.808;17.856;2024-01-16T07:47:19;99191.72;;;-4.72
48854;BMP280;34673;52.808;17.856;2024-01-16T07:49:47;99193.41;;;-4.71
48854;BMP280;34673;52.808;17.856;2024-01-16T07:52:14;99212.00;;;-4.69
48854;BMP280;34673;52.808;17.856;2024-01-16T07:54:41;99217.03;;;-4.69
48854;BMP280;34673;52.808;17.856;2024-01-16T07:57:08;99225.50;;;-4.67
48854;BMP280;34673;52.808;17.856;2024-01-16T07:59:35;99230.53;;;-4.67
48854;BMP280;34673;52.808;17.856;2024-01-16T08:02:03;99238.19;;;-4.65
48854;BMP280;34673;52.808;17.856;2024-01-16T08:04:32;99235.59;;;-4.67
48854;BMP280;34673;52.808;17.856;2024-01-16T08:06:59;99249.47;;;-4.56
48854;BMP280;34673;52.808;17.856;2024-01-16T08:09:26;99254.59;;;-4.53
48854;BMP280;34673;52.808;17.856;2024-01-16T08:11:53;99256.31;;;-4.52
48854;BMP280;34673;52.808;17.856;2024-01-16T08:14:21;99258.25;;;-4.44
48854;BMP280;34673;52.808;17.856;2024-01-16T08:16:48;99263.38;;;-4.41
48854;BMP280;34673;52.808;17.856;2024-01-16T08:19:15;99265.28;;;-4.34
48854;BMP280;34673;52.808;17.856;2024-01-16T08:21:42;99276.25;;;-4.10
48854;BMP280;34673;52.808;17.856;2024-01-16T08:24:09;99273.88;;;-3.78
48854;BMP280;34673;52.808;17.856;2024-01-16T08:26:36;99283.22;;;-3.48
48854;BMP280;34673;52.808;17.856;2024-01-16T08:29:03;99279.00;;;-3.21
48854;BMP280;34673;52.808;17.856;2024-01-16T08:31:32;99284.69;;;-2.99
48854;BMP280;34673;52.808;17.856;2024-01-16T08:33:59;99287.69;;;-2.82
48854;BMP280;34673;52.808;17.856;2024-01-16T08:36:26;99286.44;;;-2.67
48854;BMP280;34673;52.808;17.856;2024-01-16T08:38:53;99291.84;;;-2.54
48854;BMP280;34673;52.808;17.856;2024-01-16T08:41:22;99301.31;;;-2.47
48854;BMP280;34673;52.808;17.856;2024-01-16T08:43:49;99302.88;;;-2.52
48854;BMP280;34673;52.808;17.856;2024-01-16T08:46:17;99298.41;;;-2.61
48854;BMP280;34673;52.808;17.856;2024-01-16T08:48:46;99297.38;;;-2.68
48854;BMP280;34673;52.808;17.856;2024-01-16T08:51:14;99301.75;;;-2.62
48854;BMP280;34673;52.808;17.856;2024-01-16T08:53:41;99304.22;;;-2.63
48854;BMP280;34673;52.808;17.856;2024-01-16T08:56:09;99306.78;;;-2.63
48854;BMP280;34673;52.808;17.856;2024-01-16T08:58:39;99307.84;;;-2.55
48854;BMP280;34673;52.808;17.856;2024-01-16T09:01:07;99299.59;;;-2.48
48854;BMP280;34673;52.808;17.856;2024-01-16T09:03:35;99310.16;;;-2.33
48854;BMP280;34673;52.808;17.856;2024-01-16T09:06:03;99317.75;;;-2.33
48854;BMP280;34673;52.808;17.856;2024-01-16T09:08:30;99316.84;;;-2.35
48854;BMP280;34673;52.808;17.856;2024-01-16T09:10:58;99320.91;;;-2.40
48854;BMP280;34673;52.808;17.856;2024-01-16T09:13:26;99324.22;;;-2.42
48854;BMP280;34673;52.808;17.856;2024-01-16T09:15:53;99325.00;;;-2.45
48854;BMP280;34673;52.808;17.856;2024-01-16T09:18:20;99324.84;;;-2.51
48854;BMP280;34673;52.808;17.856;2024-01-16T09:20:47;99329.97;;;-2.48
48854;BMP280;34673;52.808;17.856;2024-01-16T09:23:15;99314.72;;;-2.51
48854;BMP280;34673;52.808;17.856;2024-01-16T09:25:42;99321.66;;;-2.44
48854;BMP280;34673;52.808;17.856;2024-01-16T09:28:13;99328.38;;;-2.46
48854;BMP280;34673;52.808;17.856;2024-01-16T09:30:41;99335.22;;;-2.42
48854;BMP280;34673;52.808;17.856;2024-01-16T09:33:09;99325.78;;;-2.48
48854;BMP280;34673;52.808;17.856;2024-01-16T09:35:37;99328.38;;;-2.46
48854;BMP280;34673;52.808;17.856;2024-01-16T09:38:04;99332.81;;;-2.37
48854;BMP280;34673;52.808;17.856;2024-01-16T09:40:32;99342.41;;;-2.26
48854;BMP280;34673;52.808;17.856;2024-01-16T09:42:59;99330.66;;;-2.24
48854;BMP280;34673;52.808;17.856;2024-01-16T09:45:26;99330.84;;;-2.16
48854;BMP280;34673;52.808;17.856;2024-01-16T09:47:56;99327.63;;;-2.10
48854;BMP280;34673;52.808;17.856;2024-01-16T09:50:23;99307.13;;;-2.19
48854;BMP280;34673;52.808;17.856;2024-01-16T09:52:51;99338.09;;;-1.98
48854;BMP280;34673;52.808;17.856;2024-01-16T09:55:18;99343.31;;;-1.92
48854;BMP280;34673;52.808;17.856;2024-01-16T09:57:45;99351.81;;;-1.90
48854;BMP280;34673;52.808;17.856;2024-01-16T10:00:13;99358.59;;;-1.89
48854;BMP280;34673;52.808;17.856;2024-01-16T10:02:41;99350.06;;;-1.91
48854;BMP280;34673;52.808;17.856;2024-01-16T10:05:12;99367.81;;;-1.91
48854;BMP280;34673;52.808;17.856;2024-01-16T10:07:42;99361.06;;;-1.90
48854;BMP280;34673;52.808;17.856;2024-01-16T10:10:12;99371.97;;;-1.93
48854;BMP280;34673;52.808;17.856;2024-01-16T10:12:40;99377.84;;;-1.95
48854;BMP280;34673;52.808;17.856;2024-01-16T10:15:07;99366.84;;;-1.96
48854;BMP280;34673;52.808;17.856;2024-01-16T10:17:36;99366.69;;;-2.02
48854;BMP280;34673;52.808;17.856;2024-01-16T10:20:04;99373.47;;;-2.01
48854;BMP280;34673;52.808;17.856;2024-01-16T10:22:32;99383.69;;;-1.98
48854;BMP280;34673;52.808;17.856;2024-01-16T10:25:06;99388.91;;;-1.92
48854;BMP280;34673;52.808;17.856;2024-01-16T10:27:35;99390.00;;;-1.82
48854;BMP280;34673;52.808;17.856;2024-01-16T10:30:03;99389.31;;;-1.76
48854;BMP280;34673;52.808;17.856;2024-01-16T10:32:41;99390.13;;;-1.77
48854;BMP280;34673;52.808;17.856;2024-01-16T10:35:09;99401.19;;;-1.75
48854;BMP280;34673;52.808;17.856;2024-01-16T10:37:53;99392.75;;;-1.74
48854;BMP280;34673;52.808;17.856;2024-01-16T10:40:22;99389.63;;;-1.64
48854;BMP280;34673;52.808;17.856;2024-01-16T10:43:04;99404.34;;;-1.49
48854;BMP280;34673;52.808;17.856;2024-01-16T10:45:32;99402.78;;;-1.44
48854;BMP280;34673;52.808;17.856;2024-01-16T10:48:09;99402.78;;;-1.44
48854;BMP280;34673;52.808;17.856;2024-01-16T10:50:37;99403.69;;;-1.44
48854;BMP280;34673;52.808;17.856;2024-01-16T10:53:07;99406.03;;;-1.50
48854;BMP280;34673;52.808;17.856;2024-01-16T10:55:51;99402.56;;;-1.53
48854;BMP280;34673;52.808;17.856;2024-01-16T10:58:22;99406.72;;;-1.57
48854;BMP280;34673;52.808;17.856;2024-01-16T11:00:52;99399.22;;;-1.52
48854;BMP280;34673;52.808;17.856;2024-01-16T11:03:40;99402.91;;;-1.40
48854;BMP280;34673;52.808;17.856;2024-01-16T11:06:08;99404.88;;;-1.28
48854;BMP280;34673;52.808;17.856;2024-01-16T11:08:37;99404.16;;;-1.22
48854;BMP280;34673;52.808;17.856;2024-01-16T11:11:05;99391.59;;;-1.18
48854;BMP280;34673;52.808;17.856;2024-01-16T11:13:36;99385.75;;;-1.15
48854;BMP280;34673;52.808;17.856;2024-01-16T11:16:04;99399.25;;;-1.16
48854;BMP280;34673;52.808;17.856;2024-01-16T11:18:32;99400.00;;;-1.20
48854;BMP280;34673;52.808;17.856;2024-01-16T11:21:12;99400.53;;;-1.34
48854;BMP280;34673;52.808;17.856;2024-01-16T11:23:45;99405.53;;;-1.37
48854;BMP280;34673;52.808;17.856;2024-01-16T11:26:39;99402.78;;;-1.46
48854;BMP280;34673;52.808;17.856;2024-01-16T11:31:56;99405.81;;;-1.59
48854;BMP280;34673;52.808;17.856;2024-01-16T11:37:11;99415.75;;;-1.67
48854;BMP280;34673;52.808;17.856;2024-01-16T11:39:39;99419.06;;;-1.69
48854;BMP280;34673;52.808;17.856;2024-01-16T11:42:09;99414.06;;;-1.68
48854;BMP280;34673;52.808;17.856;2024-01-16T11:44:45;99409.84;;;-1.67
48854;BMP280;34673;52.808;17.856;2024-01-16T11:47:19;99412.31;;;-1.69
48854;BMP280;34673;52.808;17.856;2024-01-16T11:49:48;99419.91;;;-1.70
48854;BMP280;34673;52.808;17.856;2024-01-16T11:52:41;99414.75;;;-1.73
48854;BMP280;34673;52.808;17.856;2024-01-16T11:55:31;99406.19;;;-1.79
48854;BMP280;34673;52.808;17.856;2024-01-16T11:58:26;99424.13;;;-1.71
48854;BMP280;34673;52.808;17.856;2024-01-16T12:01:00;99419.81;;;-1.73
48854;BMP280;34673;52.808;17.856;2024-01-16T12:03:30;99428.16;;;-1.77
48854;BMP280;34673;52.808;17.856;2024-01-16T12:06:02;99431.53;;;-1.79
48854;BMP280;34673;52.808;17.856;2024-01-16T12:08:30;99432.25;;;-1.83
48854;BMP280;34673;52.808;17.856;2024-01-16T12:10:58;99429.56;;;-1.89
48854;BMP280;34673;52.808;17.856;2024-01-16T12:13:26;99426.81;;;-1.96
48854;BMP280;34673;52.808;17.856;2024-01-16T12:16:00;99442.06;;;-1.95
48854;BMP280;34673;52.808;17.856;2024-01-16T12:18:27;99442.00;;;-1.96
48854;BMP280;34673;52.808;17.856;2024-01-16T12:21:10;99443.13;;;-1.87
48854;BMP280;34673;52.808;17.856;2024-01-16T12:23:37;99443.22;;;-1.84
48854;BMP280;34673;52.808;17.856;2024-01-16T12:26:22;99440.81;;;-1.79
48854;BMP280;34673;52.808;17.856;2024-01-16T12:28:53;99444.91;;;-1.83
48854;BMP280;34673;52.808;17.856;2024-01-16T12:31:27;99450.25;;;-1.73
48854;BMP280;34673;52.808;17.856;2024-01-16T12:34:14;99448.59;;;-1.71
48854;BMP280;34673;52.808;17.856;2024-01-16T12:36:42;99447.81;;;-1.69
48854;BMP280;34673;52.808;17.856;2024-01-16T12:39:12;99450.47;;;-1.64
48854;BMP280;34673;52.808;17.856;2024-01-16T12:41:44;99446.25;;;-1.64
48854;BMP280;34673;52.808;17.856;2024-01-16T12:44:13;99458.16;;;-1.61
48854;BMP280;34673;52.808;17.856;2024-01-16T12:47:04;99455.47;;;-1.67
48854;BMP280;34673;52.808;17.856;2024-01-16T12:49:31;99458.72;;;-1.71
48854;BMP280;34673;52.808;17.856;2024-01-16T12:52:18;99457.66;;;-1.80
48854;BMP280;34673;52.808;17.856;2024-01-16T12:54:45;99456.88;;;-1.79
48854;BMP280;34673;52.808;17.856;2024-01-16T12:57:22;99450.81;;;-1.84
48854;BMP280;34673;52.808;17.856;2024-01-16T12:59:49;99445.78;;;-1.82
48854;BMP280;34673;52.808;17.856;2024-01-16T13:02:25;99453.50;;;-1.77
48854;BMP280;34673;52.808;17.856;2024-01-16T13:04:59;99459.44;;;-1.77
48854;BMP280;34673;52.808;17.856;2024-01-16T13:07:29;99462.88;;;-1.75
48854;BMP280;34673;52.808;17.856;2024-01-16T13:10:26;99455.22;;;-1.76
48854;BMP280;34673;52.808;17.856;2024-01-16T13:13:14;99467.09;;;-1.75
48854;BMP280;34673;52.808;17.856;2024-01-16T13:15:42;99470.41;;;-1.76
48854;BMP280;34673;52.808;17.856;2024-01-16T13:18:21;99465.50;;;-1.72
48854;BMP280;34673;52.808;17.856;2024-01-16T13:20:54;99480.75;;;-1.70
48854;BMP280;34673;52.808;17.856;2024-01-16T13:23:22;99480.84;;;-1.67
48854;BMP280;34673;52.808;17.856;2024-01-16T13:25:50;99479.97;;;-1.68
48854;BMP280;34673;52.808;17.856;2024-01-16T13:28:19;99490.91;;;-1.70
48854;BMP280;34673;52.808;17.856;2024-01-16T13:30:52;99485.63;;;-1.76
48854;BMP280;34673;52.808;17.856;2024-01-16T13:33:19;99491.66;;;-1.73
48854;BMP280;34673;52.808;17.856;2024-01-16T13:35:47;99492.44;;;-1.75
48854;BMP280;34673;52.808;17.856;2024-01-16T13:38:15;99496.75;;;-1.73
48854;BMP280;34673;52.808;17.856;2024-01-16T13:40:46;99498.38;;;-1.75
48854;BMP280;34673;52.808;17.856;2024-01-16T13:43:13;99494.97;;;-1.75
48854;BMP280;34673;52.808;17.856;2024-01-16T13:45:40;99496.47;;;-1.82
48854;BMP280;34673;52.808;17.856;2024-01-16T13:48:08;99495.53;;;-1.86
48854;BMP280;34673;52.808;17.856;2024-01-16T13:50:36;99497.94;;;-1.90
48854;BMP280;34673;52.808;17.856;2024-01-16T13:53:03;99492.88;;;-1.90
48854;BMP280;34673;52.808;17.856;2024-01-16T13:55:31;99497.91;;;-1.92
48854;BMP280;34673;52.808;17.856;2024-01-16T13:57:58;99485.91;;;-1.97
48854;BMP280;34673;52.808;17.856;2024-01-16T14:00:26;99486.69;;;-2.00
48854;BMP280;34673;52.808;17.856;2024-01-16T14:02:54;99487.50;;;-2.01
48854;BMP280;34673;52.808;17.856;2024-01-16T14:05:22;99489.06;;;-2.06
48854;BMP280;34673;52.808;17.856;2024-01-16T14:07:50;99499.31;;;-2.02
48854;BMP280;34673;52.808;17.856;2024-01-16T14:10:19;99497.53;;;-2.04
48854;BMP280;34673;52.808;17.856;2024-01-16T14:12:48;99489.78;;;-2.10